Change the Weather History Date:

Sunday, October 13, 2013

  Actual Average Record
Temperature  
Mean Temperature 59 °F 52 °F  
Max Temperature 62 °F 62 °F 81 °F (1954)
Min Temperature 55 °F 42 °F 26 °F (2012)
Degree Days  
Heating Degree Days 6 13  
Month to date heating degree days 62 150  
Since 1 July heating degree days 231 321  
Cooling Degree Days 0 0  
Month to date cooling degree days 32 0  
Year to date cooling degree days 695 522  
Growing Degree Days 8 (Base 50)    
Moisture  
Dew Point 55 °F    
Average Humidity 82    
Maximum Humidity 100    
Minimum Humidity 64    
Precipitation  
Precipitation 0.21 in 0.08 in 0.80 in (1983)
Month to date precipitation 3.37 1.10  
Year to date precipitation 24.42 25.48  
Sea Level Pressure  
Sea Level Pressure 30.31 in    
Wind  
Wind Speed 3 mph (ENE)    
Max Wind Speed 10 mph    
Max Gust Speed 14 mph    
Visibility 5 miles    
Events Rain    
T = Trace of Precipitation, MM = Missing Value Source: NWS Daily Summary

Daily Weather History Graph

Daily Weather History Graph

Search for Another Location

Airport or City:

Trip Planner

Search our weather history database for the weather conditions in past years. The results will help you decide how hot, cold, wet, or windy it might be!

Date:

Astronomy

Oct. 13, 2013 Rise Set
Actual Time 7:22 AM EDT 6:36 PM EDT
Civil Twilight 6:54 AM EDT 7:03 PM EDT
Nautical Twilight 6:23 AM EDT 7:34 PM EDT
Astronomical Twilight 5:51 AM EDT 8:06 PM EDT
Moon 3:26 PM EDT (10/13) 1:29 AM EDT (10/13)
Length of Visible Light 12h 08m
Length of Day
11h 13m
Waxing Gibbous, 69% of the Moon is Illuminated
Oct 13
Waxing Gibbous
Oct 18
Full
Oct 26
Last Quarter
Nov 3
New
Nov 10
First Quarter

Hourly Weather History & Observations

Time (EDT) Temp. Dew Point Humidity Pressure Visibility Wind Dir Wind Speed Gust Speed Precip Events Conditions
12:53 AM 62.1 °F 51.1 °F 67% 30.22 in 10.0 mi ENE 4.6 mph - N/A   Overcast
1:53 AM 61.0 °F 48.9 °F 64% 30.22 in 10.0 mi East 8.1 mph - N/A   Overcast
2:53 AM 57.9 °F 51.1 °F 78% 30.23 in 10.0 mi East 5.8 mph - 0.00 in Rain Light Rain
3:53 AM 57.0 °F 53.1 °F 87% 30.24 in 10.0 mi ENE 4.6 mph - 0.00 in   Overcast
4:14 AM 57.2 °F 53.6 °F 88% 30.25 in 10.0 mi ENE 3.5 mph - N/A   Overcast
4:53 AM 55.9 °F 53.1 °F 90% 30.25 in 10.0 mi North 3.5 mph - N/A   Overcast
5:11 AM 55.4 °F 53.6 °F 94% 30.26 in 10.0 mi NNE 5.8 mph - N/A   Overcast
5:53 AM 55.9 °F 54.0 °F 93% 30.26 in 10.0 mi NNE 3.5 mph - N/A   Overcast
6:53 AM 55.0 °F 54.0 °F 96% 30.28 in 8.0 mi North 4.6 mph - 0.01 in   Overcast
7:53 AM 55.9 °F 55.0 °F 97% 30.29 in 4.0 mi NE 3.5 mph - N/A   Overcast
8:02 AM 55.4 °F 55.4 °F 100% 30.30 in 2.5 mi NE 4.6 mph - 0.00 in Rain Light Rain
8:08 AM 55.4 °F 55.4 °F 100% 30.30 in 2.5 mi NE 3.5 mph - 0.00 in   Overcast
8:11 AM 55.4 °F 55.4 °F 100% 30.30 in 3.0 mi NE 4.6 mph - 0.00 in   Overcast
8:23 AM 55.4 °F 55.4 °F 100% 30.30 in 3.0 mi NNE 3.5 mph - 0.00 in   Overcast
8:46 AM 55.4 °F 55.4 °F 100% 30.31 in 4.0 mi Variable 3.5 mph - 0.00 in   Overcast
8:53 AM 55.9 °F 55.0 °F 97% 30.31 in 4.0 mi East 4.6 mph - 0.00 in   Overcast
9:07 AM 55.4 °F 55.4 °F 100% 30.31 in 1.8 mi East 3.5 mph - 0.01 in Rain Light Rain
9:18 AM 55.4 °F 55.4 °F 100% 30.32 in 2.0 mi East 5.8 mph - 0.01 in Rain Light Rain
9:26 AM 55.4 °F 55.4 °F 100% 30.32 in 1.5 mi East 3.5 mph - 0.01 in Rain Light Rain
9:50 AM 55.4 °F 55.4 °F 100% 30.33 in 3.0 mi East 3.5 mph - 0.02 in Rain Light Rain
9:53 AM 57.0 °F 55.0 °F 93% 30.33 in 2.5 mi Calm Calm - 0.02 in Rain Light Rain
10:02 AM 55.4 °F 55.4 °F 100% 30.33 in 1.0 mi ENE 3.5 mph - 0.01 in Rain Light Rain
10:37 AM 55.4 °F 55.4 °F 100% 30.34 in 1.8 mi Calm Calm - 0.03 in Rain Light Rain
10:46 AM 55.4 °F 55.4 °F 100% 30.34 in 3.0 mi Calm Calm - 0.03 in Rain Light Rain
10:53 AM 55.9 °F 55.0 °F 97% 30.34 in 3.0 mi Calm Calm - 0.04 in   Overcast
11:11 AM 57.2 °F 55.4 °F 94% 30.34 in 1.8 mi East 3.5 mph - 0.00 in Rain Light Rain
11:25 AM 57.2 °F 55.4 °F 94% 30.34 in 1.2 mi Calm Calm - 0.01 in Rain Rain
11:38 AM 57.2 °F 55.4 °F 94% 30.34 in 3.0 mi Calm Calm - 0.02 in Rain Rain
11:50 AM 57.2 °F 55.4 °F 94% 30.34 in 5.0 mi NE 3.5 mph - 0.03 in Rain Light Rain
11:53 AM 57.0 °F 55.0 °F 93% 30.34 in 5.0 mi Calm Calm - 0.04 in Rain Light Rain
12:29 PM 57.2 °F 55.4 °F 94% 30.34 in 7.0 mi Calm Calm - 0.02 in   Overcast
12:53 PM 57.0 °F 55.0 °F 93% 30.33 in 9.0 mi East 3.5 mph - 0.03 in   Overcast
1:51 PM 57.2 °F 55.4 °F 94% 30.32 in 5.0 mi East 3.5 mph - 0.03 in   Overcast
1:53 PM 57.0 °F 55.0 °F 93% 30.32 in 5.0 mi East 3.5 mph - 0.03 in   Overcast
2:03 PM 55.4 °F 55.4 °F 100% 30.32 in 1.8 mi ENE 3.5 mph - 0.00 in Rain Light Rain
2:12 PM 57.2 °F 55.4 °F 94% 30.31 in 2.5 mi East 3.5 mph - 0.00 in   Overcast
2:26 PM 57.2 °F 55.4 °F 94% 30.31 in 3.0 mi ENE 3.5 mph - 0.00 in   Overcast
2:53 PM 57.0 °F 55.9 °F 96% 30.31 in 3.0 mi East 3.5 mph - 0.01 in   Overcast
3:07 PM 57.2 °F 55.4 °F 94% 30.30 in 2.5 mi East 4.6 mph - N/A   Overcast
3:14 PM 57.2 °F 55.4 °F 94% 30.30 in 3.0 mi East 4.6 mph - N/A   Overcast
3:41 PM 57.2 °F 55.4 °F 94% 30.30 in 1.8 mi ESE 4.6 mph - N/A   Overcast
3:46 PM 57.2 °F 55.4 °F 94% 30.30 in 2.0 mi East 4.6 mph - N/A   Overcast
3:53 PM 57.0 °F 55.9 °F 96% 30.31 in 2.5 mi ESE 4.6 mph - N/A   Overcast
4:14 PM 57.2 °F 55.4 °F 94% 30.31 in 1.8 mi Calm Calm - 0.00 in Rain Light Rain
4:23 PM 57.2 °F 55.4 °F 94% 30.31 in 2.0 mi Calm Calm - 0.00 in Rain Light Rain
4:27 PM 57.2 °F 55.4 °F 94% 30.31 in 3.0 mi Calm Calm - 0.00 in Rain Light Rain
4:53 PM 57.0 °F 55.9 °F 96% 30.31 in 1.8 mi Calm Calm - 0.01 in Rain Light Rain
5:02 PM 57.2 °F 55.4 °F 94% 30.31 in 3.0 mi Calm Calm - 0.00 in   Overcast
5:30 PM 57.2 °F 55.4 °F 94% 30.31 in 10.0 mi ENE 3.5 mph - 0.01 in   Overcast
5:53 PM 57.0 °F 55.9 °F 96% 30.32 in 7.0 mi East 3.5 mph - 0.01 in   Overcast
6:00 PM 57.2 °F 55.4 °F 94% 30.31 in 2.5 mi Calm Calm - N/A   Overcast
6:08 PM 57.2 °F 55.4 °F 94% 30.31 in 1.5 mi Calm Calm - 0.00 in Rain Light Rain
6:13 PM 57.2 °F 55.4 °F 94% 30.31 in 3.0 mi Calm Calm - 0.00 in Rain Light Rain
6:26 PM 57.2 °F 55.4 °F 94% 30.32 in 2.0 mi Calm Calm - 0.00 in Rain Light Rain
6:36 PM 57.2 °F 55.4 °F 94% 30.32 in 4.0 mi Calm Calm - 0.00 in Rain Light Rain
6:53 PM 57.0 °F 55.9 °F 96% 30.33 in 3.0 mi Calm Calm - 0.00 in Rain Light Rain
7:07 PM 57.2 °F 55.4 °F 94% 30.32 in 4.0 mi SSE 4.6 mph - 0.01 in Rain Light Rain
7:16 PM 57.2 °F 55.4 °F 94% 30.33 in 6.0 mi South 6.9 mph - 0.01 in   Overcast
7:53 PM 55.9 °F 55.0 °F 97% 30.34 in 5.0 mi SSW 5.8 mph - 0.01 in Rain Light Rain
8:53 PM 57.0 °F 54.0 °F 89% 30.34 in 10.0 mi South 3.5 mph - 0.00 in   Overcast
9:53 PM 55.9 °F 55.0 °F 97% 30.34 in 9.0 mi SSW 3.5 mph - N/A   Overcast
10:53 PM 57.0 °F 55.0 °F 93% 30.33 in 6.0 mi Calm Calm - N/A   Overcast
11:53 PM 57.0 °F 55.0 °F 93% 30.34 in 8.0 mi Calm Calm - N/A   Overcast